Lake Viking, Missouri
Current Conditions -  °F | °C
As of 10:55 AM on Friday 24 Oct 2014 (Local Time) from KGPH Reporting Station
Overcast Overcast  
Wind Chill: 59°   Ceiling: 700
Heat Index: 59°   Visibility: 7mi
Dew Point: 59°   Wind: 5mph
Humidity: 100%   Direction: 170°S
Pressure: 30.06"   Gusts: NA
Location:  39.8573°N, 93.9615°W
Report Text: KGPH 241555Z AUTO 17004KT 7SM OVC007 15/15 A3006 RMK AO2
Loading
Personal Weather Stations






























Interactive Weather Map
Tropical Storm Tracking
New forecast layout! Learn more

10-Day Weather Forecast

Advertisements
Track Severe Weather on mobile